sensor_id;sensor_type;location;lat;lon;timestamp;pressure;altitude;pressure_sealevel;temperature
70819;BMP280;58439;51.046;13.692;2022-12-04T00:01:26;100346.72;;;2.69
70819;BMP280;58439;51.046;13.692;2022-12-04T00:03:59;100355.53;;;2.67
70819;BMP280;58439;51.046;13.692;2022-12-04T00:06:27;100358.25;;;2.65
70819;BMP280;58439;51.046;13.692;2022-12-04T00:08:56;100353.34;;;2.62
70819;BMP280;58439;51.046;13.692;2022-12-04T00:11:28;100353.47;;;2.61
70819;BMP280;58439;51.046;13.692;2022-12-04T00:13:59;100357.13;;;2.58
70819;BMP280;58439;51.046;13.692;2022-12-04T00:16:33;100355.47;;;2.57
70819;BMP280;58439;51.046;13.692;2022-12-04T00:19:00;100353.84;;;2.56
70819;BMP280;58439;51.046;13.692;2022-12-04T00:59:37;100345.63;;;2.62
70819;BMP280;58439;51.046;13.692;2022-12-04T01:03:32;100338.94;;;2.60
70819;BMP280;58439;51.046;13.692;2022-12-04T01:06:07;100343.97;;;2.61
70819;BMP280;58439;51.046;13.692;2022-12-04T01:09:23;100340.44;;;2.62
70819;BMP280;58439;51.046;13.692;2022-12-04T01:11:51;100332.97;;;2.69
70819;BMP280;58439;51.046;13.692;2022-12-04T01:14:18;100325.09;;;2.70
70819;BMP280;58439;51.046;13.692;2022-12-04T01:16:46;100341.28;;;2.72
70819;BMP280;58439;51.046;13.692;2022-12-04T01:19:13;100336.66;;;2.76
70819;BMP280;58439;51.046;13.692;2022-12-04T01:21:40;100332.22;;;2.78
70819;BMP280;58439;51.046;13.692;2022-12-04T01:24:08;100330.31;;;2.80
70819;BMP280;58439;51.046;13.692;2022-12-04T01:26:35;100331.41;;;2.78
70819;BMP280;58439;51.046;13.692;2022-12-04T01:29:02;100330.56;;;2.77
70819;BMP280;58439;51.046;13.692;2022-12-04T01:31:29;100327.03;;;2.78
70819;BMP280;58439;51.046;13.692;2022-12-04T01:33:57;100319.97;;;2.80
70819;BMP280;58439;51.046;13.692;2022-12-04T01:36:27;100320.53;;;2.84
70819;BMP280;58439;51.046;13.692;2022-12-04T01:38:55;100318.78;;;2.84
70819;BMP280;58439;51.046;13.692;2022-12-04T01:41:27;100320.44;;;2.85
70819;BMP280;58439;51.046;13.692;2022-12-04T01:44:19;100314.31;;;2.86
70819;BMP280;58439;51.046;13.692;2022-12-04T01:46:58;100307.06;;;2.80
70819;BMP280;58439;51.046;13.692;2022-12-04T01:49:40;100297.53;;;2.81
70819;BMP280;58439;51.046;13.692;2022-12-04T01:52:19;100295.81;;;2.81
70819;BMP280;58439;51.046;13.692;2022-12-04T01:54:58;100298.38;;;2.81
70819;BMP280;58439;51.046;13.692;2022-12-04T01:57:30;100288.06;;;2.81
70819;BMP280;58439;51.046;13.692;2022-12-04T02:00:09;100285.72;;;2.78
70819;BMP280;58439;51.046;13.692;2022-12-04T02:02:41;100283.25;;;2.76
70819;BMP280;58439;51.046;13.692;2022-12-04T02:05:16;100276.22;;;2.79
70819;BMP280;58439;51.046;13.692;2022-12-04T02:07:50;100268.56;;;2.77
70819;BMP280;58439;51.046;13.692;2022-12-04T02:10:19;100277.16;;;2.78
70819;BMP280;58439;51.046;13.692;2022-12-04T02:13:07;100271.03;;;2.79
70819;BMP280;58439;51.046;13.692;2022-12-04T02:15:58;100273.94;;;2.85
70819;BMP280;58439;51.046;13.692;2022-12-04T02:21:39;100269.28;;;2.89
70819;BMP280;58439;51.046;13.692;2022-12-04T02:26:58;100274.47;;;2.89
70819;BMP280;58439;51.046;13.692;2022-12-04T02:29:57;100264.13;;;2.89
70819;BMP280;58439;51.046;13.692;2022-12-04T02:35:51;100261.84;;;2.86
70819;BMP280;58439;51.046;13.692;2022-12-04T02:38:41;100259.38;;;2.84
70819;BMP280;58439;51.046;13.692;2022-12-04T02:41:24;100267.00;;;2.86
70819;BMP280;58439;51.046;13.692;2022-12-04T02:44:03;100254.75;;;2.88
70819;BMP280;58439;51.046;13.692;2022-12-04T02:46:41;100251.78;;;2.92
70819;BMP280;58439;51.046;13.692;2022-12-04T02:49:24;100262.09;;;2.92
70819;BMP280;58439;51.046;13.692;2022-12-04T02:51:55;100271.19;;;2.96
70819;BMP280;58439;51.046;13.692;2022-12-04T02:54:50;100269.47;;;2.97
70819;BMP280;58439;51.046;13.692;2022-12-04T02:57:31;100259.94;;;2.97
70819;BMP280;58439;51.046;13.692;2022-12-04T03:00:02;100268.78;;;3.05
70819;BMP280;58439;51.046;13.692;2022-12-04T03:02:53;100253.81;;;3.08
70819;BMP280;58439;51.046;13.692;2022-12-04T03:05:33;100254.63;;;3.09
70819;BMP280;58439;51.046;13.692;2022-12-04T03:08:09;100255.84;;;3.05
70819;BMP280;58439;51.046;13.692;2022-12-04T03:10:47;100241.31;;;3.04
70819;BMP280;58439;51.046;13.692;2022-12-04T03:13:21;100247.28;;;3.04
70819;BMP280;58439;51.046;13.692;2022-12-04T03:16:11;100244.44;;;3.07
70819;BMP280;58439;51.046;13.692;2022-12-04T03:18:49;100247.84;;;3.08
70819;BMP280;58439;51.046;13.692;2022-12-04T03:21:25;100249.06;;;3.04
70819;BMP280;58439;51.046;13.692;2022-12-04T03:24:07;100256.13;;;3.01
70819;BMP280;58439;51.046;13.692;2022-12-04T03:30:08;100248.66;;;2.98
70819;BMP280;58439;51.046;13.692;2022-12-04T03:35:38;100252.59;;;3.03
70819;BMP280;58439;51.046;13.692;2022-12-04T03:38:24;100251.91;;;3.00
70819;BMP280;58439;51.046;13.692;2022-12-04T03:41:14;100254.13;;;3.05
70819;BMP280;58439;51.046;13.692;2022-12-04T03:44:14;100257.50;;;3.06
70819;BMP280;58439;51.046;13.692;2022-12-04T03:47:25;100256.56;;;3.07
70819;BMP280;58439;51.046;13.692;2022-12-04T03:50:12;100253.81;;;3.08
70819;BMP280;58439;51.046;13.692;2022-12-04T03:52:59;100262.13;;;3.12
70819;BMP280;58439;51.046;13.692;2022-12-04T03:56:01;100263.50;;;3.16
70819;BMP280;58439;51.046;13.692;2022-12-04T03:58:34;100257.53;;;3.15
70819;BMP280;58439;51.046;13.692;2022-12-04T04:01:08;100256.84;;;3.13
70819;BMP280;58439;51.046;13.692;2022-12-04T04:03:48;100261.31;;;3.11
70819;BMP280;58439;51.046;13.692;2022-12-04T04:06:49;100262.69;;;3.06
70819;BMP280;58439;51.046;13.692;2022-12-04T04:09:24;100260.22;;;3.04
70819;BMP280;58439;51.046;13.692;2022-12-04T04:12:02;100261.56;;;3.08
70819;BMP280;58439;51.046;13.692;2022-12-04T04:14:44;100268.25;;;3.11
70819;BMP280;58439;51.046;13.692;2022-12-04T04:17:38;100261.06;;;3.14
70819;BMP280;58439;51.046;13.692;2022-12-04T04:20:56;100266.78;;;3.18
70819;BMP280;58439;51.046;13.692;2022-12-04T04:23:49;100260.66;;;3.19
70819;BMP280;58439;51.046;13.692;2022-12-04T04:26:41;100265.97;;;3.17
70819;BMP280;58439;51.046;13.692;2022-12-04T04:29:10;100265.03;;;3.18
70819;BMP280;58439;51.046;13.692;2022-12-04T04:32:11;100264.19;;;3.18
70819;BMP280;58439;51.046;13.692;2022-12-04T04:37:52;100265.28;;;3.15
70819;BMP280;58439;51.046;13.692;2022-12-04T04:43:58;100255.34;;;3.11
70819;BMP280;58439;51.046;13.692;2022-12-04T04:46:34;100257.22;;;3.09
70819;BMP280;58439;51.046;13.692;2022-12-04T04:49:08;100259.13;;;3.07
70819;BMP280;58439;51.046;13.692;2022-12-04T04:51:37;100253.72;;;3.10
70819;BMP280;58439;51.046;13.692;2022-12-04T04:54:09;100260.50;;;3.11
70819;BMP280;58439;51.046;13.692;2022-12-04T04:56:43;100260.66;;;3.09
70819;BMP280;58439;51.046;13.692;2022-12-04T04:59:11;100253.00;;;3.08
70819;BMP280;58439;51.046;13.692;2022-12-04T05:01:42;100243.63;;;3.07
70819;BMP280;58439;51.046;13.692;2022-12-04T05:04:11;100250.56;;;3.06
70819;BMP280;58439;51.046;13.692;2022-12-04T05:06:38;100252.34;;;3.06
70819;BMP280;58439;51.046;13.692;2022-12-04T05:09:06;100248.00;;;3.06
70819;BMP280;58439;51.046;13.692;2022-12-04T05:11:33;100248.94;;;3.05
70819;BMP280;58439;51.046;13.692;2022-12-04T05:14:00;100246.88;;;3.09
70819;BMP280;58439;51.046;13.692;2022-12-04T05:16:28;100253.97;;;3.07
70819;BMP280;58439;51.046;13.692;2022-12-04T05:18:55;100246.38;;;3.05
70819;BMP280;58439;51.046;13.692;2022-12-04T05:21:41;100243.91;;;3.04
70819;BMP280;58439;51.046;13.692;2022-12-04T05:24:08;100245.53;;;3.05
70819;BMP280;58439;51.046;13.692;2022-12-04T05:26:35;100237.66;;;3.06
70819;BMP280;58439;51.046;13.692;2022-12-04T05:29:03;100249.63;;;3.07
70819;BMP280;58439;51.046;13.692;2022-12-04T05:31:30;100245.16;;;3.09
70819;BMP280;58439;51.046;13.692;2022-12-04T05:34:30;100243.13;;;3.13
70819;BMP280;58439;51.046;13.692;2022-12-04T05:36:58;100241.22;;;3.15
70819;BMP280;58439;51.046;13.692;2022-12-04T05:39:25;100237.00;;;3.14
70819;BMP280;58439;51.046;13.692;2022-12-04T05:41:52;100234.41;;;3.14
70819;BMP280;58439;51.046;13.692;2022-12-04T05:44:19;100231.00;;;3.13
70819;BMP280;58439;51.046;13.692;2022-12-04T05:46:46;100231.69;;;3.15
70819;BMP280;58439;51.046;13.692;2022-12-04T05:49:13;100238.38;;;3.18
70819;BMP280;58439;51.046;13.692;2022-12-04T05:51:41;100234.81;;;3.19
70819;BMP280;58439;51.046;13.692;2022-12-04T05:54:08;100231.16;;;3.21
70819;BMP280;58439;51.046;13.692;2022-12-04T05:56:35;100234.41;;;3.23
70819;BMP280;58439;51.046;13.692;2022-12-04T05:59:02;100232.66;;;3.24
70819;BMP280;58439;51.046;13.692;2022-12-04T06:01:31;100234.41;;;3.23
70819;BMP280;58439;51.046;13.692;2022-12-04T06:03:58;100223.63;;;3.28
70819;BMP280;58439;51.046;13.692;2022-12-04T06:06:26;100216.72;;;3.29
70819;BMP280;58439;51.046;13.692;2022-12-04T06:08:57;100218.34;;;3.30
70819;BMP280;58439;51.046;13.692;2022-12-04T06:11:36;100225.16;;;3.31
70819;BMP280;58439;51.046;13.692;2022-12-04T06:14:07;100228.44;;;3.33
70819;BMP280;58439;51.046;13.692;2022-12-04T06:16:39;100224.06;;;3.33
70819;BMP280;58439;51.046;13.692;2022-12-04T06:19:11;100224.06;;;3.33
70819;BMP280;58439;51.046;13.692;2022-12-04T06:21:41;100226.66;;;3.33
70819;BMP280;58439;51.046;13.692;2022-12-04T06:24:14;100232.75;;;3.32
70819;BMP280;58439;51.046;13.692;2022-12-04T06:26:42;100229.25;;;3.33
70819;BMP280;58439;51.046;13.692;2022-12-04T06:29:30;100233.44;;;3.34
70819;BMP280;58439;51.046;13.692;2022-12-04T06:31:57;100233.31;;;3.36
70819;BMP280;58439;51.046;13.692;2022-12-04T06:34:25;100231.41;;;3.38
70819;BMP280;58439;51.046;13.692;2022-12-04T06:36:52;100236.44;;;3.39
70819;BMP280;58439;51.046;13.692;2022-12-04T06:39:19;100237.00;;;3.43
70819;BMP280;58439;51.046;13.692;2022-12-04T06:41:47;100235.22;;;3.43
70819;BMP280;58439;51.046;13.692;2022-12-04T06:44:15;100234.28;;;3.44
70819;BMP280;58439;51.046;13.692;2022-12-04T06:46:42;100236.03;;;3.44
70819;BMP280;58439;51.046;13.692;2022-12-04T06:49:13;100244.63;;;3.44
70819;BMP280;58439;51.046;13.692;2022-12-04T06:51:41;100243.66;;;3.45
70819;BMP280;58439;51.046;13.692;2022-12-04T06:54:09;100248.03;;;3.45
70819;BMP280;58439;51.046;13.692;2022-12-04T06:56:36;100244.63;;;3.44
70819;BMP280;58439;51.046;13.692;2022-12-04T06:59:04;100255.63;;;3.46
70819;BMP280;58439;51.046;13.692;2022-12-04T07:01:33;100255.50;;;3.48
70819;BMP280;58439;51.046;13.692;2022-12-04T07:04:02;100248.44;;;3.50
70819;BMP280;58439;51.046;13.692;2022-12-04T07:06:34;100251.53;;;3.53
70819;BMP280;58439;51.046;13.692;2022-12-04T07:09:12;100249.63;;;3.56
70819;BMP280;58439;51.046;13.692;2022-12-04T07:11:40;100251.41;;;3.55
70819;BMP280;58439;51.046;13.692;2022-12-04T07:14:09;100250.31;;;3.58
70819;BMP280;58439;51.046;13.692;2022-12-04T07:16:39;100253.56;;;3.60
70819;BMP280;58439;51.046;13.692;2022-12-04T07:19:10;100254.00;;;3.65
70819;BMP280;58439;51.046;13.692;2022-12-04T07:21:37;100246.91;;;3.67
70819;BMP280;58439;51.046;13.692;2022-12-04T07:24:04;100239.16;;;3.67
70819;BMP280;58439;51.046;13.692;2022-12-04T07:26:32;100244.06;;;3.70
70819;BMP280;58439;51.046;13.692;2022-12-04T07:28:59;100255.34;;;3.69
70819;BMP280;58439;51.046;13.692;2022-12-04T07:31:28;100248.00;;;3.64
70819;BMP280;58439;51.046;13.692;2022-12-04T07:33:57;100248.81;;;3.65
70819;BMP280;58439;51.046;13.692;2022-12-04T07:36:26;100250.03;;;3.70
70819;BMP280;58439;51.046;13.692;2022-12-04T07:38:55;100250.19;;;3.69
70819;BMP280;58439;51.046;13.692;2022-12-04T07:41:23;100251.81;;;3.70
70819;BMP280;58439;51.046;13.692;2022-12-04T07:43:50;100251.81;;;3.70
70819;BMP280;58439;51.046;13.692;2022-12-04T07:46:21;100245.81;;;3.69
70819;BMP280;58439;51.046;13.692;2022-12-04T07:48:49;100244.06;;;3.70
70819;BMP280;58439;51.046;13.692;2022-12-04T07:51:23;100241.31;;;3.71
70819;BMP280;58439;51.046;13.692;2022-12-04T07:53:52;100238.47;;;3.74
70819;BMP280;58439;51.046;13.692;2022-12-04T07:56:20;100245.94;;;3.77
70819;BMP280;58439;51.046;13.692;2022-12-04T07:58:47;100242.38;;;3.78
70819;BMP280;58439;51.046;13.692;2022-12-04T08:01:20;100244.97;;;3.78
70819;BMP280;58439;51.046;13.692;2022-12-04T08:03:51;100240.34;;;3.82
70819;BMP280;58439;51.046;13.692;2022-12-04T08:06:21;100247.41;;;3.90
70819;BMP280;58439;51.046;13.692;2022-12-04T08:08:50;100239.38;;;3.93
70819;BMP280;58439;51.046;13.692;2022-12-04T08:11:20;100239.13;;;3.96
70819;BMP280;58439;51.046;13.692;2022-12-04T08:13:54;100242.50;;;3.96
70819;BMP280;58439;51.046;13.692;2022-12-04T08:16:21;100242.63;;;3.95
70819;BMP280;58439;51.046;13.692;2022-12-04T08:18:49;100237.75;;;3.92
70819;BMP280;58439;51.046;13.692;2022-12-04T08:21:20;100245.38;;;3.93
70819;BMP280;58439;51.046;13.692;2022-12-04T08:23:51;100240.34;;;3.92
70819;BMP280;58439;51.046;13.692;2022-12-04T08:26:21;100242.94;;;3.92
70819;BMP280;58439;51.046;13.692;2022-12-04T08:28:51;100246.44;;;3.91
70819;BMP280;58439;51.046;13.692;2022-12-04T08:31:25;100252.44;;;3.91
70819;BMP280;58439;51.046;13.692;2022-12-04T08:33:56;100248.19;;;4.00
70819;BMP280;58439;51.046;13.692;2022-12-04T08:36:24;100249.41;;;4.06
70819;BMP280;58439;51.046;13.692;2022-12-04T08:38:55;100245.19;;;4.04
70819;BMP280;58439;51.046;13.692;2022-12-04T08:41:23;100244.22;;;4.06
70819;BMP280;58439;51.046;13.692;2022-12-04T08:43:54;100245.84;;;4.07
70819;BMP280;58439;51.046;13.692;2022-12-04T08:46:25;100242.19;;;4.09
70819;BMP280;58439;51.046;13.692;2022-12-04T08:48:54;100243.00;;;4.10
70819;BMP280;58439;51.046;13.692;2022-12-04T08:51:26;100240.00;;;4.14
70819;BMP280;58439;51.046;13.692;2022-12-04T08:53:56;100246.50;;;4.18
70819;BMP280;58439;51.046;13.692;2022-12-04T08:56:25;100246.66;;;4.17
70819;BMP280;58439;51.046;13.692;2022-12-04T08:58:55;100243.47;;;4.23
70819;BMP280;58439;51.046;13.692;2022-12-04T09:01:23;100248.09;;;4.29
70819;BMP280;58439;51.046;13.692;2022-12-04T09:03:53;100237.19;;;4.35
70819;BMP280;58439;51.046;13.692;2022-12-04T09:06:21;100235.34;;;4.45
70819;BMP280;58439;51.046;13.692;2022-12-04T09:08:54;100232.22;;;4.51
70819;BMP280;58439;51.046;13.692;2022-12-04T09:11:25;100228.50;;;4.54
70819;BMP280;58439;51.046;13.692;2022-12-04T09:13:54;100231.31;;;4.61
70819;BMP280;58439;51.046;13.692;2022-12-04T09:16:23;100225.84;;;4.64
70819;BMP280;58439;51.046;13.692;2022-12-04T09:18:52;100222.16;;;4.66
70819;BMP280;58439;51.046;13.692;2022-12-04T09:21:22;100221.22;;;4.67
70819;BMP280;58439;51.046;13.692;2022-12-04T09:23:50;100225.41;;;4.68
70819;BMP280;58439;51.046;13.692;2022-12-04T09:26:25;100224.03;;;4.74
70819;BMP280;58439;51.046;13.692;2022-12-04T09:28:54;100234.75;;;4.79
70819;BMP280;58439;51.046;13.692;2022-12-04T09:31:22;100233.50;;;4.83
70819;BMP280;58439;51.046;13.692;2022-12-04T09:33:51;100234.84;;;4.87
70819;BMP280;58439;51.046;13.692;2022-12-04T09:36:18;100241.38;;;4.91
70819;BMP280;58439;51.046;13.692;2022-12-04T09:38:49;100242.03;;;4.93
70819;BMP280;58439;51.046;13.692;2022-12-04T09:47:03;100233.78;;;4.98
70819;BMP280;58439;51.046;13.692;2022-12-04T09:54:59;100229.94;;;5.02
70819;BMP280;58439;51.046;13.692;2022-12-04T09:57:37;100228.41;;;5.09
70819;BMP280;58439;51.046;13.692;2022-12-04T10:00:13;100233.13;;;5.14
70819;BMP280;58439;51.046;13.692;2022-12-04T10:02:48;100231.22;;;5.16
70819;BMP280;58439;51.046;13.692;2022-12-04T10:14:42;100222.41;;;5.26
70819;BMP280;58439;51.046;13.692;2022-12-04T10:17:50;100213.50;;;5.29
70819;BMP280;58439;51.046;13.692;2022-12-04T10:20:52;100214.97;;;5.31
70819;BMP280;58439;51.046;13.692;2022-12-04T10:26:20;100207.50;;;5.28
70819;BMP280;58439;51.046;13.692;2022-12-04T10:28:58;100211.69;;;5.29
70819;BMP280;58439;51.046;13.692;2022-12-04T10:31:30;100215.09;;;5.30
70819;BMP280;58439;51.046;13.692;2022-12-04T10:34:17;100206.38;;;5.31
70819;BMP280;58439;51.046;13.692;2022-12-04T10:36:54;100215.09;;;5.30
70819;BMP280;58439;51.046;13.692;2022-12-04T10:39:41;100205.41;;;5.32
70819;BMP280;58439;51.046;13.692;2022-12-04T10:42:24;100205.25;;;5.33
70819;BMP280;58439;51.046;13.692;2022-12-04T10:44:53;100199.53;;;5.30
70819;BMP280;58439;51.046;13.692;2022-12-04T10:47:21;100196.66;;;5.33
70819;BMP280;58439;51.046;13.692;2022-12-04T10:50:03;100195.56;;;5.36
70819;BMP280;58439;51.046;13.692;2022-12-04T10:52:30;100188.59;;;5.36
70819;BMP280;58439;51.046;13.692;2022-12-04T10:55:00;100186.00;;;5.36
70819;BMP280;58439;51.046;13.692;2022-12-04T10:57:53;100184.75;;;5.40
70819;BMP280;58439;51.046;13.692;2022-12-04T11:00:31;100182.66;;;5.44
70819;BMP280;58439;51.046;13.692;2022-12-04T11:03:02;100197.59;;;5.50
70819;BMP280;58439;51.046;13.692;2022-12-04T11:05:44;100191.00;;;5.55
70819;BMP280;58439;51.046;13.692;2022-12-04T11:08:32;100198.13;;;5.61
70819;BMP280;58439;51.046;13.692;2022-12-04T11:11:06;100193.34;;;5.67
70819;BMP280;58439;51.046;13.692;2022-12-04T11:13:34;100198.19;;;5.70
70819;BMP280;58439;51.046;13.692;2022-12-04T11:16:02;100204.06;;;5.72
70819;BMP280;58439;51.046;13.692;2022-12-04T11:18:34;100202.59;;;5.69
70819;BMP280;58439;51.046;13.692;2022-12-04T11:23:50;100205.56;;;5.74
70819;BMP280;58439;51.046;13.692;2022-12-04T11:26:41;100200.84;;;5.78
70819;BMP280;58439;51.046;13.692;2022-12-04T11:29:15;100189.50;;;5.79
70819;BMP280;58439;51.046;13.692;2022-12-04T11:31:51;100191.34;;;5.86
70819;BMP280;58439;51.046;13.692;2022-12-04T11:34:24;100196.38;;;5.88
70819;BMP280;58439;51.046;13.692;2022-12-04T11:36:56;100185.19;;;5.88
70819;BMP280;58439;51.046;13.692;2022-12-04T11:39:36;100186.97;;;5.87
70819;BMP280;58439;51.046;13.692;2022-12-04T11:42:21;100189.56;;;5.87
70819;BMP280;58439;51.046;13.692;2022-12-04T11:45:01;100194.75;;;5.87
70819;BMP280;58439;51.046;13.692;2022-12-04T11:48:03;100197.34;;;5.87
70819;BMP280;58439;51.046;13.692;2022-12-04T11:50:59;100186.97;;;5.87
70819;BMP280;58439;51.046;13.692;2022-12-04T11:53:51;100185.50;;;5.93
70819;BMP280;58439;51.046;13.692;2022-12-04T11:56:44;100189.41;;;5.97
70819;BMP280;58439;51.046;13.692;2022-12-04T12:03:09;100175.69;;;6.04
70819;BMP280;58439;51.046;13.692;2022-12-04T12:12:01;100165.63;;;6.09
70819;BMP280;58439;51.046;13.692;2022-12-04T12:15:24;100159.78;;;6.07
70819;BMP280;58439;51.046;13.692;2022-12-04T12:21:24;100153.75;;;6.07
70819;BMP280;58439;51.046;13.692;2022-12-04T12:24:36;100158.16;;;6.06
70819;BMP280;58439;51.046;13.692;2022-12-04T12:27:24;100151.00;;;6.08
70819;BMP280;58439;51.046;13.692;2022-12-04T12:30:17;100145.34;;;6.05
70819;BMP280;58439;51.046;13.692;2022-12-04T12:33:13;100143.38;;;5.99
70819;BMP280;58439;51.046;13.692;2022-12-04T12:36:02;100138.81;;;6.01
70819;BMP280;58439;51.046;13.692;2022-12-04T12:41:30;100140.13;;;6.05
70819;BMP280;58439;51.046;13.692;2022-12-04T12:47:12;100132.34;;;6.13
70819;BMP280;58439;51.046;13.692;2022-12-04T12:50:20;100127.34;;;6.11
70819;BMP280;58439;51.046;13.692;2022-12-04T12:53:35;100125.03;;;6.08
70819;BMP280;58439;51.046;13.692;2022-12-04T12:56:05;100125.03;;;6.08
70819;BMP280;58439;51.046;13.692;2022-12-04T12:58:43;100136.22;;;6.09
70819;BMP280;58439;51.046;13.692;2022-12-04T13:01:22;100125.72;;;6.10
70819;BMP280;58439;51.046;13.692;2022-12-04T13:04:07;100123.63;;;6.14
70819;BMP280;58439;51.046;13.692;2022-12-04T13:06:39;100116.13;;;6.11
70819;BMP280;58439;51.046;13.692;2022-12-04T13:09:28;100116.63;;;6.15
70819;BMP280;58439;51.046;13.692;2022-12-04T13:12:11;100112.09;;;6.17
70819;BMP280;58439;51.046;13.692;2022-12-04T13:14:40;100106.09;;;6.16
70819;BMP280;58439;51.046;13.692;2022-12-04T13:17:34;100100.91;;;6.24
70819;BMP280;58439;51.046;13.692;2022-12-04T13:20:07;100106.09;;;6.24
70819;BMP280;58439;51.046;13.692;2022-12-04T13:23:09;100092.97;;;6.26
70819;BMP280;58439;51.046;13.692;2022-12-04T13:26:15;100099.94;;;6.25
70819;BMP280;58439;51.046;13.692;2022-12-04T13:29:01;100094.09;;;6.23
70819;BMP280;58439;51.046;13.692;2022-12-04T13:32:06;100098.63;;;6.21
70819;BMP280;58439;51.046;13.692;2022-12-04T13:34:56;100093.44;;;6.21
70819;BMP280;58439;51.046;13.692;2022-12-04T13:38:02;100094.25;;;6.22
70819;BMP280;58439;51.046;13.692;2022-12-04T13:40:41;100099.59;;;6.20
70819;BMP280;58439;51.046;13.692;2022-12-04T13:43:24;100098.81;;;6.20
70819;BMP280;58439;51.046;13.692;2022-12-04T13:45:58;100090.00;;;6.21
70819;BMP280;58439;51.046;13.692;2022-12-04T13:48:38;100098.16;;;6.18
70819;BMP280;58439;51.046;13.692;2022-12-04T13:53:44;100096.84;;;6.22
70819;BMP280;58439;51.046;13.692;2022-12-04T13:56:28;100096.38;;;6.26
70819;BMP280;58439;51.046;13.692;2022-12-04T13:59:19;100093.91;;;6.25
70819;BMP280;58439;51.046;13.692;2022-12-04T14:01:51;100099.94;;;6.25
70819;BMP280;58439;51.046;13.692;2022-12-04T14:04:44;100099.28;;;6.23
70819;BMP280;58439;51.046;13.692;2022-12-04T14:07:28;100105.78;;;6.27
70819;BMP280;58439;51.046;13.692;2022-12-04T14:10:01;100105.78;;;6.27
70819;BMP280;58439;51.046;13.692;2022-12-04T14:12:38;100111.97;;;6.26
70819;BMP280;58439;51.046;13.692;2022-12-04T14:15:22;100106.47;;;6.29
70819;BMP280;58439;51.046;13.692;2022-12-04T14:20:42;100119.28;;;6.39
70819;BMP280;58439;51.046;13.692;2022-12-04T14:25:54;100118.94;;;6.26
70819;BMP280;58439;51.046;13.692;2022-12-04T14:28:38;100112.09;;;6.17
70819;BMP280;58439;51.046;13.692;2022-12-04T14:31:22;100118.72;;;6.11
70819;BMP280;58439;51.046;13.692;2022-12-04T14:34:02;100111.41;;;6.06
70819;BMP280;58439;51.046;13.692;2022-12-04T14:36:44;100107.03;;;6.07
70819;BMP280;58439;51.046;13.692;2022-12-04T14:39:25;100112.84;;;6.01
70819;BMP280;58439;51.046;13.692;2022-12-04T14:44:56;100108.00;;;5.98
70819;BMP280;58439;51.046;13.692;2022-12-04T14:47:30;100112.34;;;5.97
70819;BMP280;58439;51.046;13.692;2022-12-04T14:50:18;100105.03;;;5.93
70819;BMP280;58439;51.046;13.692;2022-12-04T14:56:04;100105.69;;;5.86
70819;BMP280;58439;51.046;13.692;2022-12-04T14:58:37;100106.50;;;5.87
70819;BMP280;58439;51.046;13.692;2022-12-04T15:01:25;100098.41;;;5.90
70819;BMP280;58439;51.046;13.692;2022-12-04T15:04:05;100092.56;;;5.88
70819;BMP280;58439;51.046;13.692;2022-12-04T15:06:33;100089.31;;;5.86
70819;BMP280;58439;51.046;13.692;2022-12-04T15:09:03;100087.66;;;5.85
70819;BMP280;58439;51.046;13.692;2022-12-04T15:11:55;100088.81;;;5.82
70819;BMP280;58439;51.046;13.692;2022-12-04T15:14:46;100086.66;;;5.78
70819;BMP280;58439;51.046;13.692;2022-12-04T15:17:16;100079.84;;;5.77
70819;BMP280;58439;51.046;13.692;2022-12-04T15:19:44;100088.28;;;5.79
70819;BMP280;58439;51.046;13.692;2022-12-04T15:22:22;100082.13;;;5.80
70819;BMP280;58439;51.046;13.692;2022-12-04T15:24:51;100080.34;;;5.80
70819;BMP280;58439;51.046;13.692;2022-12-04T15:27:22;100067.22;;;5.82
70819;BMP280;58439;51.046;13.692;2022-12-04T15:29:59;100072.09;;;5.85
70819;BMP280;58439;51.046;13.692;2022-12-04T15:32:29;100067.56;;;5.87
70819;BMP280;58439;51.046;13.692;2022-12-04T15:35:05;100072.91;;;5.85
70819;BMP280;58439;51.046;13.692;2022-12-04T15:37:35;100067.56;;;5.87
70819;BMP280;58439;51.046;13.692;2022-12-04T15:40:07;100073.75;;;5.86
70819;BMP280;58439;51.046;13.692;2022-12-04T15:42:35;100064.47;;;5.83
70819;BMP280;58439;51.046;13.692;2022-12-04T15:50:29;100058.97;;;5.86
70819;BMP280;58439;51.046;13.692;2022-12-04T15:53:06;100063.03;;;5.89
70819;BMP280;58439;51.046;13.692;2022-12-04T15:55:39;100070.81;;;5.89
70819;BMP280;58439;51.046;13.692;2022-12-04T15:58:37;100070.31;;;5.85
70819;BMP280;58439;51.046;13.692;2022-12-04T16:01:09;100060.09;;;5.84
70819;BMP280;58439;51.046;13.692;2022-12-04T16:08:53;100066.09;;;5.84
70819;BMP280;58439;51.046;13.692;2022-12-04T16:11:31;100058.31;;;5.84
70819;BMP280;58439;51.046;13.692;2022-12-04T16:14:15;100066.09;;;5.84
70819;BMP280;58439;51.046;13.692;2022-12-04T16:16:47;100065.94;;;5.86
70819;BMP280;58439;51.046;13.692;2022-12-04T16:19:34;100076.78;;;5.81
70819;BMP280;58439;51.046;13.692;2022-12-04T16:22:13;100075.97;;;5.81
70819;BMP280;58439;51.046;13.692;2022-12-04T16:24:40;100063.50;;;5.84
70819;BMP280;58439;51.046;13.692;2022-12-04T16:27:15;100072.91;;;5.85
70819;BMP280;58439;51.046;13.692;2022-12-04T16:30:02;100066.91;;;5.85
70819;BMP280;58439;51.046;13.692;2022-12-04T16:32:32;100074.69;;;5.85
70819;BMP280;58439;51.046;13.692;2022-12-04T16:35:04;100068.69;;;5.84
70819;BMP280;58439;51.046;13.692;2022-12-04T16:37:47;100065.13;;;5.85
70819;BMP280;58439;51.046;13.692;2022-12-04T16:40:27;100063.34;;;5.86
70819;BMP280;58439;51.046;13.692;2022-12-04T16:43:12;100055.41;;;5.88
70819;BMP280;58439;51.046;13.692;2022-12-04T16:49:21;100061.56;;;5.95
70819;BMP280;58439;51.046;13.692;2022-12-04T16:52:25;100064.00;;;5.96
70819;BMP280;58439;51.046;13.692;2022-12-04T16:55:19;100070.38;;;6.02
70819;BMP280;58439;51.046;13.692;2022-12-04T16:58:28;100059.66;;;6.05
70819;BMP280;58439;51.046;13.692;2022-12-04T17:01:43;100058.84;;;6.04
70819;BMP280;58439;51.046;13.692;2022-12-04T17:04:54;100062.25;;;6.05
70819;BMP280;58439;51.046;13.692;2022-12-04T17:07:41;100066.63;;;6.04